sensor_id;sensor_type;location;lat;lon;timestamp;P1;durP1;ratioP1;P2;durP2;ratioP2
51558;SDS011;61650;48.882;2.092;2022-12-07T00:01:38;28.30;;;16.90;;
51558;SDS011;61650;48.882;2.092;2022-12-07T00:04:06;26.35;;;17.17;;
51558;SDS011;61650;48.882;2.092;2022-12-07T00:06:35;24.65;;;17.20;;
51558;SDS011;61650;48.882;2.092;2022-12-07T00:09:03;26.92;;;16.65;;
51558;SDS011;61650;48.882;2.092;2022-12-07T00:11:29;29.20;;;17.85;;
51558;SDS011;61650;48.882;2.092;2022-12-07T00:13:56;27.60;;;17.55;;
51558;SDS011;61650;48.882;2.092;2022-12-07T00:16:24;28.52;;;16.85;;
51558;SDS011;61650;48.882;2.092;2022-12-07T00:18:51;30.23;;;17.52;;
51558;SDS011;61650;48.882;2.092;2022-12-07T00:21:18;27.70;;;16.83;;
51558;SDS011;61650;48.882;2.092;2022-12-07T00:23:46;24.73;;;16.25;;
51558;SDS011;61650;48.882;2.092;2022-12-07T00:28:40;30.67;;;16.48;;
51558;SDS011;61650;48.882;2.092;2022-12-07T00:31:07;26.45;;;16.08;;
51558;SDS011;61650;48.882;2.092;2022-12-07T00:33:35;25.90;;;14.52;;
51558;SDS011;61650;48.882;2.092;2022-12-07T00:36:01;25.35;;;14.63;;
51558;SDS011;61650;48.882;2.092;2022-12-07T00:38:30;25.50;;;16.58;;
51558;SDS011;61650;48.882;2.092;2022-12-07T00:40:57;25.50;;;15.30;;
51558;SDS011;61650;48.882;2.092;2022-12-07T00:43:24;25.73;;;16.45;;
51558;SDS011;61650;48.882;2.092;2022-12-07T00:45:50;22.20;;;14.73;;
51558;SDS011;61650;48.882;2.092;2022-12-07T00:48:16;29.75;;;17.92;;
51558;SDS011;61650;48.882;2.092;2022-12-07T00:50:41;34.87;;;19.10;;
51558;SDS011;61650;48.882;2.092;2022-12-07T00:53:07;24.07;;;16.20;;
51558;SDS011;61650;48.882;2.092;2022-12-07T00:55:33;26.90;;;18.00;;
51558;SDS011;61650;48.882;2.092;2022-12-07T00:57:59;30.25;;;18.58;;
51558;SDS011;61650;48.882;2.092;2022-12-07T01:00:25;32.97;;;18.93;;
51558;SDS011;61650;48.882;2.092;2022-12-07T01:02:50;34.43;;;16.70;;
51558;SDS011;61650;48.882;2.092;2022-12-07T01:05:16;33.38;;;18.23;;
51558;SDS011;61650;48.882;2.092;2022-12-07T01:07:42;32.07;;;16.53;;
51558;SDS011;61650;48.882;2.092;2022-12-07T01:10:07;29.20;;;15.37;;
51558;SDS011;61650;48.882;2.092;2022-12-07T01:12:33;29.03;;;16.83;;
51558;SDS011;61650;48.882;2.092;2022-12-07T01:14:59;25.37;;;15.30;;
51558;SDS011;61650;48.882;2.092;2022-12-07T01:17:24;27.57;;;17.07;;
51558;SDS011;61650;48.882;2.092;2022-12-07T01:19:50;27.10;;;15.50;;
51558;SDS011;61650;48.882;2.092;2022-12-07T01:22:16;28.87;;;15.00;;
51558;SDS011;61650;48.882;2.092;2022-12-07T01:24:41;25.60;;;15.40;;
51558;SDS011;61650;48.882;2.092;2022-12-07T01:27:07;26.43;;;14.53;;
51558;SDS011;61650;48.882;2.092;2022-12-07T01:29:32;32.60;;;16.83;;
51558;SDS011;61650;48.882;2.092;2022-12-07T01:31:58;27.13;;;15.60;;
51558;SDS011;61650;48.882;2.092;2022-12-07T01:34:23;26.40;;;14.60;;
51558;SDS011;61650;48.882;2.092;2022-12-07T01:36:49;27.27;;;16.00;;
51558;SDS011;61650;48.882;2.092;2022-12-07T01:39:15;28.77;;;17.00;;
51558;SDS011;61650;48.882;2.092;2022-12-07T01:41:40;26.80;;;15.30;;
51558;SDS011;61650;48.882;2.092;2022-12-07T01:44:12;31.02;;;15.63;;
51558;SDS011;61650;48.882;2.092;2022-12-07T01:46:53;25.50;;;14.18;;
51558;SDS011;61650;48.882;2.092;2022-12-07T01:54:47;27.58;;;14.48;;
51558;SDS011;61650;48.882;2.092;2022-12-07T01:57:14;27.20;;;14.30;;
51558;SDS011;61650;48.882;2.092;2022-12-07T01:59:42;27.83;;;15.70;;
51558;SDS011;61650;48.882;2.092;2022-12-07T02:02:13;24.85;;;15.38;;
51558;SDS011;61650;48.882;2.092;2022-12-07T02:04:43;26.50;;;14.65;;
51558;SDS011;61650;48.882;2.092;2022-12-07T02:07:10;26.48;;;15.38;;
51558;SDS011;61650;48.882;2.092;2022-12-07T02:09:35;24.37;;;14.50;;
51558;SDS011;61650;48.882;2.092;2022-12-07T02:12:01;27.17;;;15.77;;
51558;SDS011;61650;48.882;2.092;2022-12-07T02:14:27;31.45;;;15.18;;
51558;SDS011;61650;48.882;2.092;2022-12-07T02:17:00;28.47;;;14.83;;
51558;SDS011;61650;48.882;2.092;2022-12-07T02:27:46;21.75;;;13.70;;
51558;SDS011;61650;48.882;2.092;2022-12-07T02:30:14;20.15;;;13.48;;
51558;SDS011;61650;48.882;2.092;2022-12-07T02:32:48;22.50;;;13.38;;
51558;SDS011;61650;48.882;2.092;2022-12-07T02:35:21;20.67;;;13.55;;
51558;SDS011;61650;48.882;2.092;2022-12-07T02:40:29;19.88;;;13.55;;
51558;SDS011;61650;48.882;2.092;2022-12-07T02:43:02;22.05;;;13.93;;
51558;SDS011;61650;48.882;2.092;2022-12-07T02:45:34;23.15;;;14.48;;
51558;SDS011;61650;48.882;2.092;2022-12-07T02:48:04;19.15;;;13.80;;
51558;SDS011;61650;48.882;2.092;2022-12-07T02:50:31;20.10;;;13.55;;
51558;SDS011;61650;48.882;2.092;2022-12-07T02:52:57;20.80;;;13.77;;
51558;SDS011;61650;48.882;2.092;2022-12-07T02:55:25;20.60;;;14.40;;
51558;SDS011;61650;48.882;2.092;2022-12-07T02:58:08;21.08;;;12.25;;
51558;SDS011;61650;48.882;2.092;2022-12-07T03:03:53;19.25;;;12.80;;
51558;SDS011;61650;48.882;2.092;2022-12-07T03:06:32;18.13;;;12.40;;
51558;SDS011;61650;48.882;2.092;2022-12-07T03:12:35;22.23;;;12.55;;
51558;SDS011;61650;48.882;2.092;2022-12-07T03:15:06;18.40;;;12.80;;
51558;SDS011;61650;48.882;2.092;2022-12-07T03:17:37;21.13;;;13.70;;
51558;SDS011;61650;48.882;2.092;2022-12-07T03:20:09;19.20;;;13.07;;
51558;SDS011;61650;48.882;2.092;2022-12-07T03:22:37;20.90;;;12.88;;
51558;SDS011;61650;48.882;2.092;2022-12-07T03:25:06;18.92;;;13.07;;
51558;SDS011;61650;48.882;2.092;2022-12-07T03:27:40;18.63;;;12.35;;
51558;SDS011;61650;48.882;2.092;2022-12-07T03:30:10;22.10;;;14.10;;
51558;SDS011;61650;48.882;2.092;2022-12-07T03:32:48;18.85;;;13.10;;
51558;SDS011;61650;48.882;2.092;2022-12-07T03:35:28;19.40;;;12.90;;
51558;SDS011;61650;48.882;2.092;2022-12-07T03:41:14;17.95;;;12.52;;
51558;SDS011;61650;48.882;2.092;2022-12-07T03:43:45;18.27;;;12.13;;
51558;SDS011;61650;48.882;2.092;2022-12-07T03:49:04;17.67;;;12.60;;
51558;SDS011;61650;48.882;2.092;2022-12-07T03:51:30;20.50;;;12.95;;
51558;SDS011;61650;48.882;2.092;2022-12-07T03:56:55;18.00;;;13.40;;
51558;SDS011;61650;48.882;2.092;2022-12-07T03:59:22;18.10;;;12.27;;
51558;SDS011;61650;48.882;2.092;2022-12-07T04:01:55;20.35;;;13.50;;
51558;SDS011;61650;48.882;2.092;2022-12-07T04:04:26;18.25;;;12.80;;
51558;SDS011;61650;48.882;2.092;2022-12-07T04:06:51;19.23;;;12.80;;
51558;SDS011;61650;48.882;2.092;2022-12-07T04:09:17;19.97;;;12.80;;
51558;SDS011;61650;48.882;2.092;2022-12-07T04:11:43;19.07;;;13.67;;
51558;SDS011;61650;48.882;2.092;2022-12-07T04:14:09;19.23;;;12.70;;
51558;SDS011;61650;48.882;2.092;2022-12-07T04:16:47;19.48;;;12.45;;
51558;SDS011;61650;48.882;2.092;2022-12-07T04:19:23;25.02;;;13.95;;
51558;SDS011;61650;48.882;2.092;2022-12-07T04:21:54;20.00;;;12.30;;
51558;SDS011;61650;48.882;2.092;2022-12-07T04:24:20;20.65;;;13.85;;
51558;SDS011;61650;48.882;2.092;2022-12-07T04:26:46;17.83;;;12.23;;
51558;SDS011;61650;48.882;2.092;2022-12-07T04:29:12;19.43;;;13.03;;
51558;SDS011;61650;48.882;2.092;2022-12-07T04:31:38;14.80;;;11.77;;
51558;SDS011;61650;48.882;2.092;2022-12-07T04:34:04;18.53;;;12.47;;
51558;SDS011;61650;48.882;2.092;2022-12-07T04:36:30;16.92;;;13.32;;
51558;SDS011;61650;48.882;2.092;2022-12-07T04:38:56;19.08;;;12.63;;
51558;SDS011;61650;48.882;2.092;2022-12-07T04:41:22;17.53;;;12.70;;
51558;SDS011;61650;48.882;2.092;2022-12-07T04:43:58;22.67;;;13.45;;
51558;SDS011;61650;48.882;2.092;2022-12-07T04:46:26;19.17;;;13.38;;
51558;SDS011;61650;48.882;2.092;2022-12-07T04:48:53;18.27;;;12.13;;
51558;SDS011;61650;48.882;2.092;2022-12-07T04:51:23;20.65;;;12.82;;
51558;SDS011;61650;48.882;2.092;2022-12-07T04:53:50;19.23;;;13.20;;
51558;SDS011;61650;48.882;2.092;2022-12-07T04:56:16;16.93;;;12.20;;
51558;SDS011;61650;48.882;2.092;2022-12-07T04:58:43;18.08;;;12.60;;
51558;SDS011;61650;48.882;2.092;2022-12-07T05:01:10;20.15;;;13.02;;
51558;SDS011;61650;48.882;2.092;2022-12-07T05:03:37;19.65;;;13.07;;
51558;SDS011;61650;48.882;2.092;2022-12-07T05:06:03;18.13;;;11.90;;
51558;SDS011;61650;48.882;2.092;2022-12-07T05:08:30;16.02;;;11.52;;
51558;SDS011;61650;48.882;2.092;2022-12-07T05:10:56;17.38;;;12.10;;
51558;SDS011;61650;48.882;2.092;2022-12-07T05:13:22;18.87;;;11.70;;
51558;SDS011;61650;48.882;2.092;2022-12-07T05:15:48;15.07;;;11.30;;
51558;SDS011;61650;48.882;2.092;2022-12-07T05:18:14;15.23;;;10.32;;
51558;SDS011;61650;48.882;2.092;2022-12-07T05:20:40;14.52;;;10.10;;
51558;SDS011;61650;48.882;2.092;2022-12-07T05:23:06;16.85;;;11.07;;
51558;SDS011;61650;48.882;2.092;2022-12-07T05:25:32;15.20;;;9.80;;
51558;SDS011;61650;48.882;2.092;2022-12-07T05:27:58;15.47;;;11.10;;
51558;SDS011;61650;48.882;2.092;2022-12-07T05:30:24;14.93;;;10.70;;
51558;SDS011;61650;48.882;2.092;2022-12-07T05:32:50;16.73;;;10.23;;
51558;SDS011;61650;48.882;2.092;2022-12-07T05:35:16;13.85;;;9.75;;
51558;SDS011;61650;48.882;2.092;2022-12-07T05:37:43;14.57;;;9.05;;
51558;SDS011;61650;48.882;2.092;2022-12-07T05:40:09;14.07;;;9.10;;
51558;SDS011;61650;48.882;2.092;2022-12-07T05:42:35;13.63;;;9.65;;
51558;SDS011;61650;48.882;2.092;2022-12-07T05:45:00;14.30;;;10.00;;
51558;SDS011;61650;48.882;2.092;2022-12-07T05:47:26;12.60;;;9.15;;
51558;SDS011;61650;48.882;2.092;2022-12-07T05:49:52;12.80;;;9.17;;
51558;SDS011;61650;48.882;2.092;2022-12-07T05:52:18;13.57;;;8.37;;
51558;SDS011;61650;48.882;2.092;2022-12-07T05:54:43;13.67;;;9.57;;
51558;SDS011;61650;48.882;2.092;2022-12-07T05:57:09;12.60;;;9.07;;
51558;SDS011;61650;48.882;2.092;2022-12-07T05:59:34;11.90;;;9.13;;
51558;SDS011;61650;48.882;2.092;2022-12-07T06:02:02;12.87;;;9.33;;
51558;SDS011;61650;48.882;2.092;2022-12-07T06:04:30;13.00;;;9.13;;
51558;SDS011;61650;48.882;2.092;2022-12-07T06:06:58;12.55;;;9.13;;
51558;SDS011;61650;48.882;2.092;2022-12-07T06:09:24;12.10;;;9.13;;
51558;SDS011;61650;48.882;2.092;2022-12-07T06:11:51;17.17;;;9.48;;
51558;SDS011;61650;48.882;2.092;2022-12-07T06:14:35;11.90;;;9.20;;
51558;SDS011;61650;48.882;2.092;2022-12-07T06:17:01;13.43;;;9.53;;
51558;SDS011;61650;48.882;2.092;2022-12-07T06:19:27;16.15;;;9.60;;
51558;SDS011;61650;48.882;2.092;2022-12-07T06:21:53;15.40;;;9.43;;
51558;SDS011;61650;48.882;2.092;2022-12-07T06:24:19;13.13;;;9.60;;
51558;SDS011;61650;48.882;2.092;2022-12-07T06:26:45;14.63;;;8.90;;
51558;SDS011;61650;48.882;2.092;2022-12-07T06:29:11;12.48;;;8.95;;
51558;SDS011;61650;48.882;2.092;2022-12-07T06:31:37;11.80;;;8.90;;
51558;SDS011;61650;48.882;2.092;2022-12-07T06:34:04;13.27;;;9.15;;
51558;SDS011;61650;48.882;2.092;2022-12-07T06:36:38;12.55;;;8.70;;
51558;SDS011;61650;48.882;2.092;2022-12-07T06:39:04;12.73;;;9.60;;
51558;SDS011;61650;48.882;2.092;2022-12-07T06:41:30;10.90;;;8.98;;
51558;SDS011;61650;48.882;2.092;2022-12-07T06:43:56;14.27;;;9.48;;
51558;SDS011;61650;48.882;2.092;2022-12-07T06:46:22;12.00;;;9.47;;
51558;SDS011;61650;48.882;2.092;2022-12-07T06:48:48;13.18;;;9.10;;
51558;SDS011;61650;48.882;2.092;2022-12-07T06:51:13;15.20;;;9.63;;
51558;SDS011;61650;48.882;2.092;2022-12-07T06:53:40;13.35;;;9.45;;
51558;SDS011;61650;48.882;2.092;2022-12-07T06:56:05;13.43;;;9.07;;
51558;SDS011;61650;48.882;2.092;2022-12-07T06:58:31;14.63;;;10.25;;
51558;SDS011;61650;48.882;2.092;2022-12-07T07:00:57;13.13;;;9.70;;
51558;SDS011;61650;48.882;2.092;2022-12-07T07:03:22;14.73;;;10.40;;
51558;SDS011;61650;48.882;2.092;2022-12-07T07:05:49;14.93;;;10.30;;
51558;SDS011;61650;48.882;2.092;2022-12-07T07:08:14;14.60;;;9.27;;
51558;SDS011;61650;48.882;2.092;2022-12-07T07:10:40;12.97;;;9.60;;
51558;SDS011;61650;48.882;2.092;2022-12-07T07:13:07;13.50;;;9.60;;
51558;SDS011;61650;48.882;2.092;2022-12-07T07:15:33;13.30;;;9.65;;
51558;SDS011;61650;48.882;2.092;2022-12-07T07:17:59;13.10;;;10.07;;
51558;SDS011;61650;48.882;2.092;2022-12-07T07:20:25;12.82;;;10.18;;
51558;SDS011;61650;48.882;2.092;2022-12-07T07:22:53;12.53;;;9.70;;
51558;SDS011;61650;48.882;2.092;2022-12-07T07:25:19;14.38;;;10.70;;
51558;SDS011;61650;48.882;2.092;2022-12-07T07:27:45;13.37;;;10.43;;
51558;SDS011;61650;48.882;2.092;2022-12-07T07:30:11;13.77;;;10.30;;
51558;SDS011;61650;48.882;2.092;2022-12-07T07:32:37;14.60;;;10.30;;
51558;SDS011;61650;48.882;2.092;2022-12-07T07:35:03;16.33;;;11.07;;
51558;SDS011;61650;48.882;2.092;2022-12-07T07:37:29;14.90;;;9.95;;
51558;SDS011;61650;48.882;2.092;2022-12-07T07:39:54;15.70;;;10.33;;
51558;SDS011;61650;48.882;2.092;2022-12-07T07:42:20;13.43;;;9.93;;
51558;SDS011;61650;48.882;2.092;2022-12-07T07:44:45;15.13;;;9.30;;
51558;SDS011;61650;48.882;2.092;2022-12-07T07:47:11;15.33;;;10.37;;
51558;SDS011;61650;48.882;2.092;2022-12-07T07:49:37;15.30;;;10.30;;
51558;SDS011;61650;48.882;2.092;2022-12-07T07:52:02;15.10;;;10.47;;
51558;SDS011;61650;48.882;2.092;2022-12-07T07:54:30;15.40;;;11.18;;
51558;SDS011;61650;48.882;2.092;2022-12-07T07:56:55;18.27;;;12.50;;
51558;SDS011;61650;48.882;2.092;2022-12-07T07:59:21;19.03;;;13.10;;
51558;SDS011;61650;48.882;2.092;2022-12-07T08:01:46;18.00;;;12.60;;
51558;SDS011;61650;48.882;2.092;2022-12-07T08:04:12;16.67;;;11.30;;
51558;SDS011;61650;48.882;2.092;2022-12-07T08:06:38;16.90;;;12.20;;
51558;SDS011;61650;48.882;2.092;2022-12-07T08:09:03;19.67;;;11.83;;
51558;SDS011;61650;48.882;2.092;2022-12-07T08:11:30;15.25;;;11.30;;
51558;SDS011;61650;48.882;2.092;2022-12-07T08:13:56;18.60;;;11.90;;
51558;SDS011;61650;48.882;2.092;2022-12-07T08:16:22;17.90;;;12.23;;
51558;SDS011;61650;48.882;2.092;2022-12-07T08:18:47;19.73;;;12.60;;
51558;SDS011;61650;48.882;2.092;2022-12-07T08:21:13;17.10;;;12.13;;
51558;SDS011;61650;48.882;2.092;2022-12-07T08:23:40;16.20;;;11.90;;
51558;SDS011;61650;48.882;2.092;2022-12-07T08:26:07;15.02;;;10.95;;
51558;SDS011;61650;48.882;2.092;2022-12-07T08:28:34;18.40;;;11.98;;
51558;SDS011;61650;48.882;2.092;2022-12-07T08:31:00;18.50;;;12.10;;
51558;SDS011;61650;48.882;2.092;2022-12-07T08:33:28;17.55;;;12.30;;
51558;SDS011;61650;48.882;2.092;2022-12-07T08:35:54;19.47;;;12.90;;
51558;SDS011;61650;48.882;2.092;2022-12-07T08:38:20;15.97;;;11.40;;
51558;SDS011;61650;48.882;2.092;2022-12-07T08:40:53;15.90;;;10.80;;
51558;SDS011;61650;48.882;2.092;2022-12-07T08:43:22;16.00;;;11.30;;
51558;SDS011;61650;48.882;2.092;2022-12-07T08:45:49;15.87;;;10.73;;
51558;SDS011;61650;48.882;2.092;2022-12-07T08:48:28;16.40;;;10.75;;
51558;SDS011;61650;48.882;2.092;2022-12-07T08:50:54;16.08;;;10.95;;
51558;SDS011;61650;48.882;2.092;2022-12-07T08:53:20;13.87;;;10.47;;
51558;SDS011;61650;48.882;2.092;2022-12-07T08:55:46;19.08;;;12.80;;
51558;SDS011;61650;48.882;2.092;2022-12-07T08:58:12;16.45;;;11.55;;
51558;SDS011;61650;48.882;2.092;2022-12-07T09:00:38;15.30;;;11.20;;
51558;SDS011;61650;48.882;2.092;2022-12-07T09:03:04;14.90;;;11.57;;
51558;SDS011;61650;48.882;2.092;2022-12-07T09:05:29;14.40;;;10.30;;
51558;SDS011;61650;48.882;2.092;2022-12-07T09:07:57;16.20;;;11.40;;
51558;SDS011;61650;48.882;2.092;2022-12-07T09:10:24;14.70;;;11.85;;
51558;SDS011;61650;48.882;2.092;2022-12-07T09:12:51;14.52;;;11.15;;
51558;SDS011;61650;48.882;2.092;2022-12-07T09:15:16;16.30;;;11.33;;
51558;SDS011;61650;48.882;2.092;2022-12-07T09:17:42;14.80;;;10.80;;
51558;SDS011;61650;48.882;2.092;2022-12-07T09:20:07;17.03;;;11.90;;
51558;SDS011;61650;48.882;2.092;2022-12-07T09:22:34;16.90;;;12.05;;
51558;SDS011;61650;48.882;2.092;2022-12-07T09:25:00;16.40;;;11.50;;
51558;SDS011;61650;48.882;2.092;2022-12-07T09:27:26;13.70;;;9.65;;
51558;SDS011;61650;48.882;2.092;2022-12-07T09:29:52;15.75;;;10.57;;
51558;SDS011;61650;48.882;2.092;2022-12-07T09:32:18;14.47;;;10.90;;
51558;SDS011;61650;48.882;2.092;2022-12-07T09:34:44;16.33;;;11.47;;
51558;SDS011;61650;48.882;2.092;2022-12-07T09:37:09;17.27;;;10.77;;
51558;SDS011;61650;48.882;2.092;2022-12-07T09:39:38;17.20;;;11.33;;
51558;SDS011;61650;48.882;2.092;2022-12-07T09:42:05;14.90;;;10.88;;
51558;SDS011;61650;48.882;2.092;2022-12-07T09:44:32;16.10;;;10.75;;
51558;SDS011;61650;48.882;2.092;2022-12-07T09:46:58;16.00;;;11.88;;
51558;SDS011;61650;48.882;2.092;2022-12-07T09:49:24;17.90;;;11.40;;
51558;SDS011;61650;48.882;2.092;2022-12-07T09:54:45;14.77;;;10.95;;
51558;SDS011;61650;48.882;2.092;2022-12-07T09:57:13;16.65;;;12.18;;
51558;SDS011;61650;48.882;2.092;2022-12-07T09:59:39;17.37;;;12.00;;
51558;SDS011;61650;48.882;2.092;2022-12-07T10:02:25;17.70;;;12.43;;
51558;SDS011;61650;48.882;2.092;2022-12-07T10:05:01;16.50;;;12.00;;
51558;SDS011;61650;48.882;2.092;2022-12-07T10:07:32;18.10;;;12.43;;
51558;SDS011;61650;48.882;2.092;2022-12-07T10:09:58;21.87;;;12.20;;
51558;SDS011;61650;48.882;2.092;2022-12-07T10:12:24;14.60;;;10.30;;
51558;SDS011;61650;48.882;2.092;2022-12-07T10:14:54;17.20;;;12.07;;
51558;SDS011;61650;48.882;2.092;2022-12-07T10:17:30;18.70;;;12.13;;
51558;SDS011;61650;48.882;2.092;2022-12-07T10:23:03;17.52;;;12.15;;
51558;SDS011;61650;48.882;2.092;2022-12-07T10:25:36;16.90;;;13.18;;
51558;SDS011;61650;48.882;2.092;2022-12-07T10:30:32;17.77;;;12.70;;
51558;SDS011;61650;48.882;2.092;2022-12-07T10:33:27;20.35;;;14.02;;
51558;SDS011;61650;48.882;2.092;2022-12-07T10:35:53;20.73;;;13.30;;
51558;SDS011;61650;48.882;2.092;2022-12-07T10:38:19;21.43;;;14.23;;
51558;SDS011;61650;48.882;2.092;2022-12-07T10:40:45;19.10;;;13.10;;
51558;SDS011;61650;48.882;2.092;2022-12-07T11:10:20;12.23;;;10.55;;
51558;SDS011;61650;48.882;2.092;2022-12-07T11:13:01;15.48;;;11.45;;
51558;SDS011;61650;48.882;2.092;2022-12-07T11:15:50;15.55;;;11.95;;
51558;SDS011;61650;48.882;2.092;2022-12-07T11:24:04;16.23;;;11.82;;
51558;SDS011;61650;48.882;2.092;2022-12-07T11:35:26;18.65;;;11.90;;
51558;SDS011;61650;48.882;2.092;2022-12-07T11:37:55;17.73;;;11.70;;
51558;SDS011;61650;48.882;2.092;2022-12-07T11:40:35;17.45;;;12.50;;
51558;SDS011;61650;48.882;2.092;2022-12-07T11:46:14;15.18;;;11.60;;
51558;SDS011;61650;48.882;2.092;2022-12-07T11:48:52;18.42;;;12.13;;
51558;SDS011;61650;48.882;2.092;2022-12-07T11:51:26;19.90;;;13.90;;
51558;SDS011;61650;48.882;2.092;2022-12-07T11:53:55;17.83;;;12.85;;
51558;SDS011;61650;48.882;2.092;2022-12-07T11:56:25;19.45;;;12.55;;
51558;SDS011;61650;48.882;2.092;2022-12-07T12:06:32;20.45;;;14.45;;
51558;SDS011;61650;48.882;2.092;2022-12-07T12:11:49;18.48;;;13.25;;
51558;SDS011;61650;48.882;2.092;2022-12-07T12:22:34;13.60;;;10.80;;
51558;SDS011;61650;48.882;2.092;2022-12-07T12:25:13;14.35;;;11.23;;
51558;SDS011;61650;48.882;2.092;2022-12-07T12:27:46;18.55;;;10.82;;
51558;SDS011;61650;48.882;2.092;2022-12-07T12:33:02;16.95;;;10.40;;
51558;SDS011;61650;48.882;2.092;2022-12-07T12:35:38;13.18;;;10.70;;
51558;SDS011;61650;48.882;2.092;2022-12-07T12:38:22;18.63;;;11.00;;
51558;SDS011;61650;48.882;2.092;2022-12-07T12:40:58;19.70;;;12.20;;
51558;SDS011;61650;48.882;2.092;2022-12-07T12:51:43;13.13;;;8.77;;
51558;SDS011;61650;48.882;2.092;2022-12-07T12:54:15;14.40;;;8.80;;
51558;SDS011;61650;48.882;2.092;2022-12-07T13:02:15;13.95;;;10.30;;
51558;SDS011;61650;48.882;2.092;2022-12-07T13:04:51;15.30;;;11.10;;
51558;SDS011;61650;48.882;2.092;2022-12-07T13:29:15;21.77;;;14.07;;
51558;SDS011;61650;48.882;2.092;2022-12-07T13:31:54;20.42;;;12.52;;
51558;SDS011;61650;48.882;2.092;2022-12-07T13:34:38;17.27;;;12.88;;
51558;SDS011;61650;48.882;2.092;2022-12-07T13:39:56;14.88;;;11.43;;
51558;SDS011;61650;48.882;2.092;2022-12-07T13:42:37;15.98;;;12.00;;
51558;SDS011;61650;48.882;2.092;2022-12-07T13:48:10;14.73;;;10.95;;
51558;SDS011;61650;48.882;2.092;2022-12-07T13:50:48;15.43;;;11.90;;
51558;SDS011;61650;48.882;2.092;2022-12-07T13:53:19;15.43;;;11.25;;
51558;SDS011;61650;48.882;2.092;2022-12-07T13:55:45;15.67;;;10.77;;
51558;SDS011;61650;48.882;2.092;2022-12-07T13:58:12;11.18;;;7.90;;
51558;SDS011;61650;48.882;2.092;2022-12-07T14:00:39;10.15;;;8.00;;
51558;SDS011;61650;48.882;2.092;2022-12-07T14:05:37;11.32;;;7.53;;
51558;SDS011;61650;48.882;2.092;2022-12-07T14:08:05;8.80;;;6.60;;
51558;SDS011;61650;48.882;2.092;2022-12-07T14:15:56;11.38;;;7.05;;
51558;SDS011;61650;48.882;2.092;2022-12-07T14:18:27;10.30;;;6.85;;
51558;SDS011;61650;48.882;2.092;2022-12-07T14:21:14;12.25;;;7.95;;
51558;SDS011;61650;48.882;2.092;2022-12-07T14:23:43;8.77;;;6.20;;
51558;SDS011;61650;48.882;2.092;2022-12-07T14:26:18;12.52;;;7.97;;
51558;SDS011;61650;48.882;2.092;2022-12-07T14:28:45;10.95;;;7.38;;
51558;SDS011;61650;48.882;2.092;2022-12-07T14:31:18;11.77;;;6.63;;
51558;SDS011;61650;48.882;2.092;2022-12-07T14:33:49;11.00;;;7.10;;
51558;SDS011;61650;48.882;2.092;2022-12-07T14:36:15;10.23;;;7.37;;
51558;SDS011;61650;48.882;2.092;2022-12-07T14:38:40;8.20;;;6.10;;
51558;SDS011;61650;48.882;2.092;2022-12-07T14:41:09;10.77;;;7.07;;
51558;SDS011;61650;48.882;2.092;2022-12-07T14:44:01;9.15;;;6.82;;
51558;SDS011;61650;48.882;2.092;2022-12-07T14:46:33;13.98;;;7.20;;
51558;SDS011;61650;48.882;2.092;2022-12-07T14:48:58;9.20;;;6.73;;
51558;SDS011;61650;48.882;2.092;2022-12-07T14:51:24;9.17;;;7.00;;
51558;SDS011;61650;48.882;2.092;2022-12-07T14:53:50;8.10;;;6.27;;
51558;SDS011;61650;48.882;2.092;2022-12-07T14:56:16;16.50;;;7.40;;
51558;SDS011;61650;48.882;2.092;2022-12-07T14:58:42;13.40;;;8.87;;
51558;SDS011;61650;48.882;2.092;2022-12-07T15:01:08;12.27;;;8.20;;
51558;SDS011;61650;48.882;2.092;2022-12-07T15:03:33;14.27;;;8.20;;
51558;SDS011;61650;48.882;2.092;2022-12-07T15:05:59;12.50;;;7.73;;
51558;SDS011;61650;48.882;2.092;2022-12-07T15:08:25;10.85;;;6.80;;
51558;SDS011;61650;48.882;2.092;2022-12-07T15:10:51;8.20;;;6.20;;
51558;SDS011;61650;48.882;2.092;2022-12-07T15:13:17;8.38;;;5.78;;
51558;SDS011;61650;48.882;2.092;2022-12-07T15:16:04;9.25;;;7.15;;
51558;SDS011;61650;48.882;2.092;2022-12-07T15:18:33;10.05;;;6.70;;
51558;SDS011;61650;48.882;2.092;2022-12-07T15:20:58;10.73;;;6.07;;
51558;SDS011;61650;48.882;2.092;2022-12-07T15:23:24;8.13;;;5.67;;
51558;SDS011;61650;48.882;2.092;2022-12-07T15:25:50;9.20;;;6.43;;
51558;SDS011;61650;48.882;2.092;2022-12-07T15:28:15;8.23;;;6.10;;
51558;SDS011;61650;48.882;2.092;2022-12-07T15:30:41;11.90;;;6.70;;
51558;SDS011;61650;48.882;2.092;2022-12-07T15:33:08;13.32;;;7.47;;
51558;SDS011;61650;48.882;2.092;2022-12-07T15:35:42;10.38;;;7.15;;
51558;SDS011;61650;48.882;2.092;2022-12-07T15:38:09;10.68;;;7.75;;
51558;SDS011;61650;48.882;2.092;2022-12-07T15:40:35;12.95;;;7.75;;
51558;SDS011;61650;48.882;2.092;2022-12-07T15:43:01;13.30;;;7.83;;
51558;SDS011;61650;48.882;2.092;2022-12-07T15:45:27;11.93;;;7.90;;
51558;SDS011;61650;48.882;2.092;2022-12-07T15:47:53;17.63;;;11.00;;
51558;SDS011;61650;48.882;2.092;2022-12-07T15:50:20;20.27;;;14.52;;
51558;SDS011;61650;48.882;2.092;2022-12-07T15:52:46;17.48;;;12.30;;
51558;SDS011;61650;48.882;2.092;2022-12-07T15:55:12;14.30;;;9.50;;
51558;SDS011;61650;48.882;2.092;2022-12-07T15:57:38;15.77;;;8.77;;
51558;SDS011;61650;48.882;2.092;2022-12-07T16:00:05;15.53;;;9.40;;
51558;SDS011;61650;48.882;2.092;2022-12-07T16:02:33;19.15;;;12.32;;
51558;SDS011;61650;48.882;2.092;2022-12-07T16:04:59;19.33;;;11.97;;
51558;SDS011;61650;48.882;2.092;2022-12-07T16:07:24;17.47;;;9.80;;
51558;SDS011;61650;48.882;2.092;2022-12-07T16:09:50;21.17;;;11.70;;
51558;SDS011;61650;48.882;2.092;2022-12-07T16:12:16;16.60;;;11.10;;
51558;SDS011;61650;48.882;2.092;2022-12-07T16:14:42;17.83;;;11.40;;
51558;SDS011;61650;48.882;2.092;2022-12-07T16:17:08;14.27;;;10.80;;
51558;SDS011;61650;48.882;2.092;2022-12-07T16:19:35;15.60;;;12.05;;
51558;SDS011;61650;48.882;2.092;2022-12-07T16:22:01;14.20;;;12.23;;
51558;SDS011;61650;48.882;2.092;2022-12-07T16:24:28;16.90;;;12.38;;
51558;SDS011;61650;48.882;2.092;2022-12-07T16:26:53;22.30;;;13.57;;
51558;SDS011;61650;48.882;2.092;2022-12-07T16:29:19;19.27;;;13.57;;
51558;SDS011;61650;48.882;2.092;2022-12-07T16:31:47;19.02;;;13.50;;
51558;SDS011;61650;48.882;2.092;2022-12-07T16:34:13;18.88;;;14.27;;
51558;SDS011;61650;48.882;2.092;2022-12-07T16:36:39;17.67;;;13.30;;
51558;SDS011;61650;48.882;2.092;2022-12-07T16:39:05;19.33;;;12.80;;
51558;SDS011;61650;48.882;2.092;2022-12-07T16:41:31;16.15;;;13.27;;
51558;SDS011;61650;48.882;2.092;2022-12-07T16:43:57;18.53;;;13.57;;
51558;SDS011;61650;48.882;2.092;2022-12-07T16:46:26;23.38;;;15.35;;
51558;SDS011;61650;48.882;2.092;2022-12-07T16:48:52;22.17;;;13.80;;
51558;SDS011;61650;48.882;2.092;2022-12-07T16:51:17;19.17;;;14.60;;
51558;SDS011;61650;48.882;2.092;2022-12-07T16:53:43;23.53;;;14.20;;
51558;SDS011;61650;48.882;2.092;2022-12-07T16:56:13;21.40;;;15.20;;
51558;SDS011;61650;48.882;2.092;2022-12-07T16:58:40;19.52;;;14.50;;
51558;SDS011;61650;48.882;2.092;2022-12-07T17:01:11;21.58;;;14.20;;
51558;SDS011;61650;48.882;2.092;2022-12-07T17:03:38;20.35;;;15.23;;
51558;SDS011;61650;48.882;2.092;2022-12-07T17:06:09;20.48;;;14.75;;
51558;SDS011;61650;48.882;2.092;2022-12-07T17:08:40;21.08;;;13.35;;
51558;SDS011;61650;48.882;2.092;2022-12-07T17:11:09;24.07;;;15.67;;